Time;durP1;ratioP1;P1;durP2;ratioP2;P2;SDS_P1;SDS_P2;PMS_P1;PMS_P2;Temp;Humidity;BMP_temperature;BMP_pressure;BME280_temperature;BME280_humidity;BME280_pressure;Samples;Min_cycle;Max_cycle;Signal;HPM_P1;HPM_P2
2021/04/18 00:01:10;;;;;;;4.93;1.20;;;33.30;11.90;;;;;;5066713;28;20079;-61
2021/04/18 00:03:37;;;;;;;7.05;1.42;;;33.30;11.20;;;;;;5067378;28;20127;-61
2021/04/18 00:06:03;;;;;;;6.25;2.05;;;33.20;11.80;;;;;;5067292;28;20537;-61
2021/04/18 00:08:30;;;;;;;4.22;1.38;;;33.30;11.00;;;;;;5070512;28;20154;-61
2021/04/18 00:10:56;;;;;;;5.10;1.80;;;33.20;11.70;;;;;;5064907;28;20411;-61
2021/04/18 00:13:23;;;;;;;6.38;1.38;;;33.10;11.30;;;;;;5068632;28;20073;-60
2021/04/18 00:15:50;;;;;;;12.30;1.70;;;33.00;12.10;;;;;;5065564;28;20135;-61
2021/04/18 00:18:16;;;;;;;6.65;1.40;;;33.00;12.00;;;;;;5069075;28;20077;-61
2021/04/18 00:20:43;;;;;;;5.60;1.25;;;32.90;11.80;;;;;;5066601;28;20089;-61
2021/04/18 00:23:09;;;;;;;6.07;1.40;;;32.80;11.70;;;;;;5066242;28;20518;-60
2021/04/18 00:25:36;;;;;;;3.28;1.25;;;32.70;11.50;;;;;;5071935;28;20413;-61
2021/04/18 00:28:03;;;;;;;8.48;1.95;;;32.60;11.80;;;;;;5072291;28;20069;-63
2021/04/18 00:30:30;;;;;;;6.55;1.58;;;32.60;12.00;;;;;;5059906;28;20077;-62
2021/04/18 00:32:56;;;;;;;7.97;1.77;;;32.60;11.70;;;;;;5069953;28;20125;-64
2021/04/18 00:35:23;;;;;;;4.63;1.85;;;32.60;12.20;;;;;;5070142;28;20077;-62
2021/04/18 00:37:49;;;;;;;6.95;1.35;;;32.60;12.80;;;;;;5067356;28;20117;-63
2021/04/18 00:40:19;;;;;;;23.08;2.63;;;32.50;13.30;;;;;;5068018;28;20101;-62
2021/04/18 00:42:46;;;;;;;4.93;1.33;;;32.30;13.00;;;;;;5067821;28;20434;-64
2021/04/18 00:45:13;;;;;;;21.73;3.13;;;32.20;12.70;;;;;;5069216;28;20159;-60
2021/04/18 00:47:43;;;;;;;10.27;1.60;;;32.10;12.60;;;;;;5069058;28;20069;-62
2021/04/18 00:50:12;;;;;;;4.85;1.20;;;32.00;12.50;;;;;;5059716;28;20546;-63
2021/04/18 00:52:39;;;;;;;2.05;1.10;;;32.10;12.60;;;;;;5064923;28;20072;-64
2021/04/18 00:55:09;;;;;;;11.65;1.63;;;32.10;12.10;;;;;;5070731;28;20156;-62
2021/04/18 00:57:36;;;;;;;9.15;2.05;;;32.10;12.60;;;;;;5070226;28;20176;-64
2021/04/18 01:00:06;;;;;;;9.02;1.70;;;31.90;12.60;;;;;;5068394;28;20073;-62
2021/04/18 01:02:33;;;;;;;6.85;1.92;;;31.70;13.20;;;;;;5065026;28;20080;-62
2021/04/18 01:05:00;;;;;;;7.22;1.60;;;31.70;14.00;;;;;;5066024;28;20106;-62
2021/04/18 01:07:26;;;;;;;5.50;1.27;;;31.60;13.50;;;;;;5066427;28;20397;-64
2021/04/18 01:09:54;;;;;;;8.68;2.05;;;31.50;13.50;;;;;;5069954;28;20134;-61
2021/04/18 01:12:24;;;;;;;5.47;1.27;;;31.30;13.80;;;;;;5066667;28;20487;-61
2021/04/18 01:14:50;;;;;;;5.97;1.33;;;31.20;13.60;;;;;;5066834;28;20131;-62
2021/04/18 01:17:17;;;;;;;10.30;1.40;;;31.10;13.80;;;;;;5063842;28;20067;-64
2021/04/18 01:19:43;;;;;;;8.63;1.25;;;31.10;13.90;;;;;;5065960;28;20070;-63
2021/04/18 01:22:10;;;;;;;6.53;1.77;;;31.10;13.70;;;;;;5064391;28;20077;-62
2021/04/18 01:24:36;;;;;;;3.35;1.00;;;30.90;13.90;;;;;;5067828;28;20123;-63
2021/04/18 01:27:05;;;;;;;7.18;1.58;;;30.80;14.00;;;;;;5067995;28;20084;-61
2021/04/18 01:29:32;;;;;;;5.07;1.10;;;30.70;14.10;;;;;;5067760;28;20183;-63
2021/04/18 01:31:59;;;;;;;6.95;1.70;;;30.60;14.20;;;;;;5062982;28;20115;-62
2021/04/18 01:34:26;;;;;;;6.85;1.27;;;30.50;14.20;;;;;;5067064;28;20081;-63
2021/04/18 01:36:53;;;;;;;3.90;1.30;;;30.30;14.50;;;;;;5063878;28;20105;-62
2021/04/18 01:39:19;;;;;;;8.05;1.52;;;30.20;14.00;;;;;;5065612;28;20541;-61
2021/04/18 01:41:49;;;;;;;9.80;1.35;;;30.10;14.40;;;;;;5067234;28;20089;-63
2021/04/18 01:44:17;;;;;;;8.35;2.80;;;29.90;14.10;;;;;;5064735;28;20110;-61
2021/04/18 01:46:46;;;;;;;6.13;3.10;;;29.80;14.60;;;;;;5064161;28;20587;-62
2021/04/18 01:49:13;;;;;;;7.00;1.55;;;29.70;14.30;;;;;;5066438;28;20104;-62
2021/04/18 01:51:40;;;;;;;15.60;3.20;;;29.60;14.30;;;;;;5065537;28;20073;-62
2021/04/18 01:54:07;;;;;;;9.98;2.05;;;29.50;14.40;;;;;;5062327;28;20119;-65
2021/04/18 01:56:33;;;;;;;10.50;1.88;;;29.30;14.60;;;;;;5068369;28;20521;-63
2021/04/18 01:59:00;;;;;;;9.32;1.92;;;29.20;14.80;;;;;;5067608;28;20539;-62
2021/04/18 02:01:26;;;;;;;4.65;1.52;;;29.10;15.00;;;;;;5068171;28;20449;-61
2021/04/18 02:03:54;;;;;;;6.72;1.50;;;29.00;15.00;;;;;;5066324;28;20073;-60
2021/04/18 02:06:20;;;;;;;8.93;1.67;;;29.00;14.90;;;;;;5061505;28;20074;-61
2021/04/18 02:08:47;;;;;;;5.25;1.42;;;28.90;14.90;;;;;;5066308;28;20180;-61
2021/04/18 02:11:13;;;;;;;8.32;1.50;;;28.80;14.90;;;;;;5064842;28;20070;-62
2021/04/18 02:13:40;;;;;;;11.73;1.58;;;28.70;14.80;;;;;;5068300;28;20387;-64
2021/04/18 02:16:08;;;;;;;6.00;1.80;;;28.70;14.90;;;;;;5064316;28;20072;-60
2021/04/18 02:18:35;;;;;;;10.25;1.83;;;28.60;15.00;;;;;;5070100;28;20170;-62
2021/04/18 02:21:01;;;;;;;6.55;2.28;;;28.50;15.30;;;;;;5063722;28;20069;-62
2021/04/18 02:23:28;;;;;;;10.13;2.33;;;28.40;15.20;;;;;;5067867;28;20422;-61
2021/04/18 02:25:54;;;;;;;8.68;2.50;;;28.40;15.20;;;;;;5066255;28;20099;-61
2021/04/18 02:28:21;;;;;;;9.55;2.00;;;28.30;15.20;;;;;;5062448;28;20097;-60
2021/04/18 02:30:47;;;;;;;8.32;1.80;;;28.30;15.40;;;;;;5065216;28;20164;-61
2021/04/18 02:33:14;;;;;;;12.93;2.75;;;28.20;15.50;;;;;;5068493;28;20522;-60
2021/04/18 02:35:40;;;;;;;12.02;3.80;;;28.10;15.50;;;;;;5071161;28;20542;-61
2021/04/18 02:38:07;;;;;;;12.45;4.28;;;28.10;15.70;;;;;;5064551;28;20117;-60
2021/04/18 02:40:33;;;;;;;18.42;3.63;;;28.00;15.90;;;;;;5071693;28;20068;-62
2021/04/18 02:43:00;;;;;;;16.48;5.50;;;27.90;15.90;;;;;;5069479;28;20069;-61
2021/04/18 02:45:26;;;;;;;20.35;5.28;;;27.80;16.00;;;;;;5069198;28;20073;-61
2021/04/18 02:47:53;;;;;;;13.38;4.35;;;27.70;16.20;;;;;;5068687;28;20512;-60
2021/04/18 02:50:19;;;;;;;10.68;2.92;;;27.70;16.20;;;;;;5069632;28;20105;-61
2021/04/18 02:52:46;;;;;;;14.90;2.90;;;27.60;16.30;;;;;;5065503;28;20080;-61
2021/04/18 02:55:12;;;;;;;11.88;3.60;;;27.60;16.50;;;;;;5067924;28;20164;-61
2021/04/18 02:57:39;;;;;;;10.40;3.75;;;27.50;16.40;;;;;;5069340;28;20073;-59
2021/04/18 03:00:06;;;;;;;11.80;4.75;;;27.40;16.70;;;;;;5070910;28;20172;-60
2021/04/18 03:02:32;;;;;;;15.10;4.72;;;27.40;16.80;;;;;;5069436;28;20206;-63
2021/04/18 03:05:00;;;;;;;17.65;5.10;;;27.30;16.80;;;;;;5069776;28;20084;-60
2021/04/18 03:07:27;;;;;;;15.43;5.03;;;27.30;16.90;;;;;;5067976;28;20069;-62
2021/04/18 03:09:53;;;;;;;18.33;6.00;;;27.20;17.00;;;;;;5068151;28;20175;-63
2021/04/18 03:12:20;;;;;;;18.38;4.70;;;27.10;17.30;;;;;;5065614;28;20073;-61
2021/04/18 03:14:47;;;;;;;12.70;4.45;;;27.10;17.30;;;;;;5072569;28;20131;-61
2021/04/18 03:17:13;;;;;;;21.55;5.22;;;27.00;17.40;;;;;;5066500;28;20070;-62
2021/04/18 03:19:40;;;;;;;20.52;5.10;;;26.90;17.40;;;;;;5067860;28;20119;-62
2021/04/18 03:22:06;;;;;;;23.90;6.45;;;26.80;17.60;;;;;;5060250;28;20131;-65
2021/04/18 03:24:33;;;;;;;22.88;9.65;;;26.70;17.80;;;;;;5068124;28;20091;-64
2021/04/18 03:26:59;;;;;;;30.48;12.10;;;26.70;18.00;;;;;;5070514;28;20084;-60
2021/04/18 03:29:26;;;;;;;26.27;15.05;;;26.50;18.00;;;;;;5065533;28;20116;-61
2021/04/18 03:31:52;;;;;;;31.00;14.13;;;26.50;18.00;;;;;;5069827;28;20073;-62
2021/04/18 03:34:19;;;;;;;27.60;13.68;;;26.40;18.10;;;;;;5070281;28;20078;-61
2021/04/18 03:36:46;;;;;;;22.70;11.48;;;26.30;18.30;;;;;;5063459;28;20140;-60
2021/04/18 03:39:13;;;;;;;23.77;10.25;;;26.30;18.30;;;;;;5068613;28;20084;-62
2021/04/18 03:41:39;;;;;;;24.17;11.48;;;26.20;18.50;;;;;;5069918;28;20111;-61
2021/04/18 03:44:06;;;;;;;32.85;11.48;;;26.10;18.80;;;;;;5068658;28;20421;-63
2021/04/18 03:46:33;;;;;;;23.05;8.10;;;26.10;18.90;;;;;;5067295;28;20157;-63
2021/04/18 03:48:59;;;;;;;18.58;7.45;;;26.00;18.90;;;;;;5065864;28;20153;-62
2021/04/18 03:51:26;;;;;;;20.13;8.13;;;25.90;18.90;;;;;;5069661;28;20065;-62
2021/04/18 03:53:52;;;;;;;20.58;6.38;;;25.90;19.10;;;;;;5070404;28;20151;-59
2021/04/18 03:56:19;;;;;;;13.90;5.82;;;25.80;19.20;;;;;;5068978;28;20085;-60
2021/04/18 03:58:45;;;;;;;13.63;6.22;;;25.80;19.20;;;;;;5074546;28;20074;-62
2021/04/18 04:01:12;;;;;;;18.85;6.60;;;25.70;19.10;;;;;;5069217;28;20076;-64
2021/04/18 04:03:38;;;;;;;14.68;6.93;;;25.70;19.30;;;;;;5067422;28;20073;-61
2021/04/18 04:06:06;;;;;;;16.15;7.05;;;25.60;19.40;;;;;;5069155;28;20433;-61
2021/04/18 04:08:33;;;;;;;28.98;6.53;;;25.60;19.40;;;;;;5068631;28;20146;-64
2021/04/18 04:10:59;;;;;;;17.25;6.18;;;25.50;19.40;;;;;;5067516;28;21459;-64
2021/04/18 04:13:26;;;;;;;14.82;5.45;;;25.40;19.40;;;;;;5070252;28;20414;-63
2021/04/18 04:15:53;;;;;;;14.88;6.47;;;25.40;19.50;;;;;;5061939;28;20437;-62
2021/04/18 04:18:19;;;;;;;17.60;5.72;;;25.40;20.20;;;;;;5068378;28;20084;-64
2021/04/18 04:20:46;;;;;;;18.35;5.78;;;25.40;20.10;;;;;;5065294;28;20492;-64
2021/04/18 04:23:12;;;;;;;14.27;6.00;;;25.30;19.90;;;;;;5061206;28;20081;-63
2021/04/18 04:25:38;;;;;;;16.88;6.95;;;25.20;19.70;;;;;;5070215;28;20081;-62
2021/04/18 04:28:08;;;;;;;18.33;6.38;;;25.20;19.80;;;;;;5066903;28;20061;-63
2021/04/18 04:30:35;;;;;;;14.68;5.32;;;25.20;20.50;;;;;;5068398;28;20081;-61
2021/04/18 04:33:02;;;;;;;15.93;4.80;;;25.10;20.20;;;;;;5067107;28;20124;-63
2021/04/18 04:35:29;;;;;;;14.82;4.50;;;25.10;20.20;;;;;;5064244;28;20101;-63
2021/04/18 04:37:57;;;;;;;13.77;3.67;;;25.10;20.10;;;;;;5069409;28;20196;-64
2021/04/18 04:40:24;;;;;;;13.73;4.30;;;25.10;20.20;;;;;;5067885;28;20081;-64
2021/04/18 04:42:51;;;;;;;17.60;4.13;;;25.10;20.40;;;;;;5066293;28;20077;-63
2021/04/18 04:45:18;;;;;;;16.85;3.67;;;25.00;20.70;;;;;;5062544;28;20096;-64
2021/04/18 04:47:45;;;;;;;20.23;3.75;;;25.00;21.00;;;;;;5067329;28;20077;-64
2021/04/18 04:50:12;;;;;;;13.55;3.40;;;25.00;21.60;;;;;;5067016;28;20184;-65
2021/04/18 04:52:39;;;;;;;27.55;4.55;;;25.30;35.60;;;;;;5064948;28;20173;-62
2021/04/18 04:55:06;;;;;;;24.25;4.85;;;24.80;30.90;;;;;;5062349;28;20073;-61
2021/04/18 04:57:32;;;;;;;10.98;3.15;;;24.80;21.30;;;;;;5063095;28;20073;-63
2021/04/18 04:59:59;;;;;;;21.58;4.25;;;24.80;36.50;;;;;;5064914;28;20212;-64
2021/04/18 05:02:26;;;;;;;21.17;2.60;;;24.80;21.60;;;;;;5062959;28;20097;-63
2021/04/18 05:04:52;;;;;;;24.77;2.92;;;24.70;21.80;;;;;;5062936;28;20078;-64
2021/04/18 05:07:19;;;;;;;20.33;2.42;;;24.70;22.20;;;;;;5062942;28;20074;-63
2021/04/18 05:09:45;;;;;;;11.25;2.20;;;24.60;22.40;;;;;;5060683;28;20101;-62
2021/04/18 05:12:12;;;;;;;24.23;2.38;;;24.50;22.60;;;;;;5064227;28;20526;-64
2021/04/18 05:14:38;;;;;;;14.13;2.13;;;24.50;22.90;;;;;;5060375;28;20256;-61
2021/04/18 05:17:05;;;;;;;15.18;2.00;;;24.50;22.90;;;;;;5062295;28;20100;-61
2021/04/18 05:19:31;;;;;;;20.98;2.67;;;24.50;23.20;;;;;;5065829;28;20083;-62
2021/04/18 05:22:01;;;;;;;28.52;2.97;;;24.40;23.40;;;;;;5061323;28;20070;-61
2021/04/18 05:24:28;;;;;;;12.40;2.80;;;24.30;23.60;;;;;;5062041;28;20111;-62
2021/04/18 05:26:56;;;;;;;14.05;2.25;;;24.30;23.70;;;;;;5062175;28;20093;-59
2021/04/18 05:29:23;;;;;;;9.73;2.58;;;24.20;23.90;;;;;;5064518;28;20100;-58
2021/04/18 05:31:50;;;;;;;10.38;2.15;;;24.20;24.00;;;;;;5062928;28;20077;-61
2021/04/18 05:34:16;;;;;;;13.00;2.60;;;24.10;23.70;;;;;;5060998;28;20077;-64
2021/04/18 05:36:43;;;;;;;13.30;2.55;;;24.10;23.60;;;;;;5064423;28;20144;-63
2021/04/18 05:39:09;;;;;;;14.52;2.00;;;24.00;22.90;;;;;;5067256;28;20108;-60
2021/04/18 05:41:36;;;;;;;12.43;2.88;;;24.00;22.90;;;;;;5064931;28;20085;-60
2021/04/18 05:44:07;;;;;;;9.55;2.33;;;24.00;22.60;;;;;;5064237;28;20069;-58
2021/04/18 05:46:34;;;;;;;15.63;2.55;;;24.00;22.50;;;;;;5078932;28;20069;-61
2021/04/18 05:49:00;;;;;;;10.48;2.55;;;23.90;22.40;;;;;;5097650;28;20100;-63
2021/04/18 05:51:27;;;;;;;9.07;2.83;;;23.90;22.50;;;;;;5060369;28;20152;-64
2021/04/18 05:53:53;;;;;;;14.38;2.45;;;23.90;22.10;;;;;;5062692;28;20073;-62
2021/04/18 05:56:20;;;;;;;7.80;2.00;;;23.80;21.80;;;;;;5064494;28;20080;-63
2021/04/18 05:58:46;;;;;;;9.00;1.98;;;23.80;21.50;;;;;;5065501;28;20122;-62
2021/04/18 06:01:13;;;;;;;8.25;2.05;;;23.70;21.60;;;;;;5068039;28;20472;-62
2021/04/18 06:03:40;;;;;;;12.55;2.58;;;23.70;21.30;;;;;;5063318;28;20065;-62
2021/04/18 06:06:06;;;;;;;18.00;2.80;;;23.60;21.20;;;;;;5063911;28;20075;-61
2021/04/18 06:08:33;;;;;;;19.30;2.38;;;23.60;21.00;;;;;;5069424;28;20093;-62
2021/04/18 06:11:00;;;;;;;13.90;2.85;;;23.70;20.80;;;;;;5071259;28;20084;-62
2021/04/18 06:13:26;;;;;;;16.38;2.85;;;23.70;20.40;;;;;;5067048;28;20204;-61
2021/04/18 06:15:53;;;;;;;16.20;2.40;;;23.60;20.10;;;;;;5069429;28;20078;-61
2021/04/18 06:18:20;;;;;;;14.25;2.22;;;23.60;20.30;;;;;;5069669;28;20065;-62
2021/04/18 06:20:47;;;;;;;9.98;2.03;;;23.60;20.10;;;;;;5069096;28;20128;-61
2021/04/18 06:23:13;;;;;;;9.45;1.88;;;23.50;19.80;;;;;;5067370;28;20070;-62
2021/04/18 06:25:39;;;;;;;12.15;2.55;;;23.50;20.00;;;;;;5068111;28;20166;-62
2021/04/18 06:28:06;;;;;;;7.50;1.73;;;23.50;19.50;;;;;;5066701;28;20069;-61
2021/04/18 06:30:32;;;;;;;8.75;2.63;;;23.50;19.30;;;;;;5069987;28;20135;-61
2021/04/18 06:32:59;;;;;;;16.80;2.78;;;23.50;19.10;;;;;;5067185;28;20159;-60
2021/04/18 06:35:25;;;;;;;15.52;3.67;;;23.40;19.20;;;;;;5067056;28;20483;-61
2021/04/18 06:37:52;;;;;;;12.38;3.80;;;23.40;19.20;;;;;;5070290;28;20504;-62
2021/04/18 06:40:18;;;;;;;14.38;3.42;;;23.40;19.20;;;;;;5070301;28;20121;-61
2021/04/18 06:42:45;;;;;;;19.30;4.20;;;23.30;19.30;;;;;;5068481;28;20078;-61
2021/04/18 06:45:12;;;;;;;12.73;2.88;;;23.20;19.60;;;;;;5070025;28;20476;-60
2021/04/18 06:47:42;;;;;;;6.50;2.00;;;23.20;19.70;;;;;;5069282;28;20538;-62
2021/04/18 06:50:10;;;;;;;6.60;1.92;;;23.10;19.80;;;;;;5068499;28;20426;-63
2021/04/18 06:52:37;;;;;;;12.88;2.22;;;23.10;19.90;;;;;;5066346;28;20443;-62
2021/04/18 06:55:05;;;;;;;8.43;2.20;;;23.00;19.80;;;;;;5065356;28;20164;-61
2021/04/18 06:57:32;;;;;;;15.07;2.55;;;23.00;20.10;;;;;;5064779;28;20088;-61
2021/04/18 06:59:59;;;;;;;11.02;2.45;;;23.00;20.20;;;;;;5067411;28;20069;-61
2021/04/18 07:02:33;;;;;;;10.18;1.88;;;22.90;20.20;;;;;;5065663;28;20077;-61
2021/04/18 07:05:12;;;;;;;7.40;2.35;;;22.80;20.20;;;;;;5062273;28;20151;-61
2021/04/18 07:07:41;;;;;;;7.65;2.42;;;22.70;20.20;;;;;;5069053;28;20073;-61
2021/04/18 07:10:13;;;;;;;12.98;2.50;;;22.70;20.40;;;;;;5070654;28;20165;-62
2021/04/18 07:12:42;;;;;;;15.10;2.60;;;22.70;20.40;;;;;;5068261;28;20070;-62
2021/04/18 07:15:09;;;;;;;14.57;3.08;;;22.60;20.60;;;;;;5063493;28;20544;-61
2021/04/18 07:17:47;;;;;;;8.57;2.55;;;22.60;20.80;;;;;;5065214;28;20150;-62
2021/04/18 07:20:16;;;;;;;10.15;1.92;;;22.60;20.60;;;;;;5065193;28;20069;-60
2021/04/18 07:22:43;;;;;;;9.98;2.08;;;22.50;20.80;;;;;;5064665;28;20073;-60
2021/04/18 07:25:10;;;;;;;7.47;2.15;;;22.40;20.80;;;;;;5064161;28;20163;-61
2021/04/18 07:27:51;;;;;;;9.45;2.25;;;22.40;20.90;;;;;;5062343;28;20101;-59
2021/04/18 07:30:21;;;;;;;11.70;2.30;;;22.40;21.10;;;;;;5067406;28;20092;-62
2021/04/18 07:33:05;;;;;;;8.65;2.13;;;22.40;21.20;;;;;;5063393;28;20070;-62
2021/04/18 07:35:36;;;;;;;11.43;2.40;;;22.40;21.10;;;;;;5065020;28;20077;-61
2021/04/18 07:38:20;;;;;;;9.70;1.80;;;22.50;21.20;;;;;;5067124;28;20488;-62
2021/04/18 07:40:54;;;;;;;11.63;2.58;;;22.40;21.10;;;;;;5065339;28;20150;-62
2021/04/18 07:43:21;;;;;;;11.07;2.97;;;22.40;20.90;;;;;;5068445;28;20416;-63
2021/04/18 07:45:50;;;;;;;14.85;2.53;;;22.30;21.00;;;;;;5065102;28;20126;-62
2021/04/18 07:48:19;;;;;;;20.30;2.63;;;22.30;21.30;;;;;;5064804;28;20073;-60
2021/04/18 07:50:47;;;;;;;12.98;2.17;;;22.20;22.00;;;;;;5066803;28;20088;-61
2021/04/18 07:53:21;;;;;;;7.30;2.08;;;22.10;22.40;;;;;;5065483;28;20072;-62
2021/04/18 07:55:47;;;;;;;10.60;2.15;;;22.10;23.00;;;;;;5066975;28;20073;-63
2021/04/18 07:58:15;;;;;;;14.48;2.10;;;22.10;23.40;;;;;;5068452;28;20065;-62
2021/04/18 08:00:41;;;;;;;13.30;2.22;;;22.10;23.40;;;;;;5069121;28;20069;-61
2021/04/18 08:03:08;;;;;;;12.80;1.73;;;22.10;23.60;;;;;;5065815;28;20073;-62
2021/04/18 08:05:35;;;;;;;10.40;2.30;;;22.00;24.00;;;;;;5046614;28;20101;-61
2021/04/18 08:08:08;;;;;;;14.85;2.42;;;21.80;24.30;;;;;;5101452;27;20073;-60
2021/04/18 08:10:38;;;;;;;11.75;2.00;;;21.80;24.80;;;;;;5055491;28;20568;-58
2021/04/18 08:13:23;;;;;;;20.05;2.42;;;21.80;25.00;;;;;;5065813;28;20076;-58
2021/04/18 08:15:52;;;;;;;18.17;2.72;;;21.70;25.30;;;;;;5066101;28;20433;-60
2021/04/18 08:18:37;;;;;;;17.35;3.05;;;21.60;25.50;;;;;;5086421;28;20072;-59
2021/04/18 08:21:23;;;;;;;25.10;3.28;;;21.60;25.70;;;;;;5064674;28;20080;-60
2021/04/18 08:23:50;;;;;;;18.17;3.17;;;21.50;25.90;;;;;;5065130;28;20069;-59
2021/04/18 08:26:18;;;;;;;17.88;3.10;;;21.50;26.10;;;;;;5063485;28;20081;-61
2021/04/18 08:29:02;;;;;;;23.20;3.30;;;21.40;26.80;;;;;;5063044;28;20093;-61
2021/04/18 08:31:54;;;;;;;16.08;2.75;;;21.40;26.40;;;;;;5062426;28;20061;-60
2021/04/18 08:34:27;;;;;;;21.45;4.03;;;21.40;26.60;;;;;;5067246;28;20112;-63
2021/04/18 08:37:01;;;;;;;23.70;3.95;;;21.20;26.60;;;;;;5066392;28;20101;-60
2021/04/18 08:39:29;;;;;;;29.33;4.95;;;21.10;26.80;;;;;;5066641;28;20065;-59
2021/04/18 08:42:00;;;;;;;33.97;5.25;;;21.00;26.90;;;;;;5064367;28;20665;-62
2021/04/18 08:44:39;;;;;;;28.80;5.57;;;21.00;26.90;;;;;;5061684;28;20108;-60
2021/04/18 08:47:14;;;;;;;28.40;5.13;;;21.10;27.10;;;;;;5065828;28;20069;-64
2021/04/18 08:49:51;;;;;;;25.48;4.95;;;21.10;27.40;;;;;;5065569;28;20103;-59
2021/04/18 08:52:23;;;;;;;33.55;6.05;;;21.10;27.30;;;;;;5067942;28;20441;-62
2021/04/18 08:54:54;;;;;;;39.90;6.20;;;20.90;27.30;;;;;;5066410;28;20160;-59
2021/04/18 08:57:34;;;;;;;41.10;6.35;;;20.80;27.50;;;;;;5067074;28;20084;-65
2021/04/18 09:00:23;;;;;;;41.30;6.00;;;20.70;27.70;;;;;;5062416;28;20548;-60
2021/04/18 09:02:56;;;;;;;39.53;6.75;;;20.70;27.90;;;;;;5064856;28;20069;-62
2021/04/18 09:05:25;;;;;;;52.78;6.82;;;20.80;28.00;;;;;;5064382;28;20076;-62
2021/04/18 09:07:51;;;;;;;45.90;7.68;;;20.80;28.00;;;;;;5065581;28;20065;-60
2021/04/18 09:10:18;;;;;;;53.15;8.05;;;20.80;28.10;;;;;;5063932;28;20131;-60
2021/04/18 09:12:48;;;;;;;49.65;6.80;;;20.70;28.00;;;;;;5063786;28;20081;-59
2021/04/18 09:15:15;;;;;;;59.70;7.35;;;20.70;28.10;;;;;;5063473;28;20069;-60
2021/04/18 09:17:41;;;;;;;50.28;5.88;;;20.60;27.80;;;;;;5067745;28;20068;-61
2021/04/18 09:20:10;;;;;;;52.42;7.00;;;20.70;40.00;;;;;;5065977;28;20077;-58
2021/04/18 09:22:41;;;;;;;44.35;7.90;;;20.70;28.10;;;;;;5067342;28;20126;-60
2021/04/18 09:25:09;;;;;;;65.25;8.73;;;20.70;28.00;;;;;;5062844;28;20073;-58
2021/04/18 09:27:42;;;;;;;65.72;8.30;;;20.70;28.60;;;;;;5062431;28;20084;-60
2021/04/18 09:30:10;;;;;;;58.70;6.80;;;20.80;29.00;;;;;;5063740;28;20564;-59
2021/04/18 09:32:39;;;;;;;51.28;6.80;;;20.80;29.00;;;;;;5067375;28;20130;-58
2021/04/18 09:35:07;;;;;;;49.55;7.95;;;20.70;28.30;;;;;;5064751;28;20164;-60
2021/04/18 09:37:38;;;;;;;45.60;8.30;;;20.60;28.20;;;;;;5061202;28;20578;-60
2021/04/18 09:40:08;;;;;;;33.72;9.20;;;20.50;28.30;;;;;;5060826;28;20144;-60
2021/04/18 09:42:41;;;;;;;54.53;8.55;;;20.30;28.50;;;;;;5060960;28;20081;-59
2021/04/18 09:45:13;;;;;;;58.22;8.05;;;20.30;28.70;;;;;;5063170;28;20545;-60
2021/04/18 09:47:45;;;;;;;65.78;9.40;;;20.30;28.60;;;;;;5067282;28;20103;-60
2021/04/18 09:50:35;;;;;;;38.28;8.18;;;20.20;28.70;;;;;;5061006;28;20592;-60
2021/04/18 09:53:31;;;;;;;60.03;9.20;;;20.30;28.60;;;;;;5063828;28;20078;-59
2021/04/18 09:56:00;;;;;;;47.58;8.90;;;20.20;28.20;;;;;;5059380;28;20081;-62
2021/04/18 09:58:31;;;;;;;50.63;9.90;;;20.20;27.90;;;;;;5065507;28;20085;-60
2021/04/18 10:00:58;;;;;;;41.72;10.07;;;20.10;27.40;;;;;;5064201;28;20085;-59
2021/04/18 10:03:43;;;;;;;48.60;10.57;;;20.10;27.10;;;;;;5064524;28;20164;-61
2021/04/18 10:06:09;;;;;;;33.72;8.75;;;20.10;26.70;;;;;;5061624;28;20104;-60
2021/04/18 10:08:38;;;;;;;43.58;8.55;;;20.10;26.30;;;;;;5063103;28;20124;-60
2021/04/18 10:11:08;;;;;;;33.50;6.47;;;20.10;26.10;;;;;;5063458;28;20077;-60
2021/04/18 10:13:54;;;;;;;25.65;5.50;;;20.10;25.40;;;;;;5061119;28;20526;-60
2021/04/18 10:16:31;;;;;;;28.00;4.75;;;20.10;25.20;;;;;;5062312;28;20080;-60
2021/04/18 10:19:30;;;;;;;27.95;5.30;;;20.10;24.90;;;;;;5060271;28;20087;-60
2021/04/18 10:22:09;;;;;;;27.85;5.10;;;20.10;24.70;;;;;;5045801;28;20081;-61
2021/04/18 10:24:43;;;;;;;22.02;4.32;;;20.10;24.70;;;;;;5062842;28;20620;-60
2021/04/18 10:27:12;;;;;;;21.85;4.60;;;20.10;24.80;;;;;;5063411;28;20156;-61
2021/04/18 10:29:40;;;;;;;21.73;5.07;;;20.10;24.90;;;;;;5062581;28;20096;-60
2021/04/18 10:32:08;;;;;;;29.17;4.53;;;20.20;25.00;;;;;;5067888;28;20611;-61
2021/04/18 10:34:34;;;;;;;27.63;4.35;;;20.20;24.70;;;;;;5063703;28;20077;-61
2021/04/18 10:37:03;;;;;;;15.35;3.22;;;20.20;24.60;;;;;;5063195;28;20109;-58
2021/04/18 10:39:30;;;;;;;11.55;2.30;;;20.30;24.50;;;;;;5061196;28;20526;-60
2021/04/18 10:41:57;;;;;;;9.60;1.90;;;20.20;24.30;;;;;;5066686;28;20073;-60
2021/04/18 10:44:24;;;;;;;10.00;2.30;;;20.20;24.40;;;;;;5060711;28;20146;-61
2021/04/18 10:46:58;;;;;;;13.68;2.30;;;20.20;24.40;;;;;;5061045;28;20070;-60
2021/04/18 10:49:25;;;;;;;12.20;2.28;;;20.30;24.60;;;;;;5063325;28;20566;-59
2021/04/18 10:51:52;;;;;;;10.25;1.80;;;20.30;24.70;;;;;;5061465;28;20182;-59
2021/04/18 10:54:20;;;;;;;9.07;1.80;;;20.30;24.70;;;;;;5068645;28;20182;-60
2021/04/18 10:56:47;;;;;;;12.45;1.75;;;20.10;25.20;;;;;;5070499;28;20065;-61
2021/04/18 10:59:15;;;;;;;7.68;1.90;;;20.20;24.80;;;;;;5066133;28;20628;-61
2021/04/18 11:01:42;;;;;;;3.83;1.15;;;20.30;24.50;;;;;;5067814;28;20084;-60
2021/04/18 11:04:10;;;;;;;6.75;1.50;;;20.30;40.40;;;;;;5066944;28;20178;-59
2021/04/18 11:06:37;;;;;;;5.93;1.35;;;20.30;25.00;;;;;;5068712;28;20073;-62
2021/04/18 11:09:04;;;;;;;5.75;1.25;;;20.30;25.10;;;;;;5064126;28;20092;-60
2021/04/18 11:11:31;;;;;;;12.63;1.40;;;20.20;25.20;;;;;;5067802;28;20075;-61
2021/04/18 11:13:58;;;;;;;8.32;1.25;;;20.30;25.40;;;;;;5065718;28;20576;-57
2021/04/18 11:16:25;;;;;;;7.57;1.08;;;20.20;25.30;;;;;;5064494;28;20516;-61
2021/04/18 11:18:52;;;;;;;4.75;0.90;;;20.20;25.30;;;;;;5068129;28;20150;-61
2021/04/18 11:21:18;;;;;;;6.13;1.00;;;20.30;25.10;;;;;;5065777;28;20105;-58
2021/04/18 11:23:45;;;;;;;6.05;0.65;;;20.30;25.10;;;;;;5065453;28;20074;-61
2021/04/18 11:26:11;;;;;;;;;;;20.30;24.60;;;;;;5065621;28;20395;-61
2021/04/18 11:28:37;;;;;;;7.32;0.88;;;20.30;24.30;;;;;;5066691;28;19979;-62
2021/04/18 11:31:04;;;;;;;8.55;1.30;;;20.30;24.20;;;;;;5062742;28;20081;-61
2021/04/18 11:33:31;;;;;;;8.02;1.10;;;20.40;24.10;;;;;;5068718;28;20081;-60
2021/04/18 11:35:57;;;;;;;5.63;0.80;;;20.30;24.10;;;;;;5064851;28;20086;-61
2021/04/18 11:38:24;;;;;;;7.20;0.95;;;20.30;23.90;;;;;;5065105;28;20473;-61
2021/04/18 11:40:50;;;;;;;2.45;0.93;;;20.30;23.70;;;;;;5061512;28;20101;-61
2021/04/18 11:43:17;;;;;;;3.63;0.90;;;20.30;23.80;;;;;;5068384;28;20564;-59
2021/04/18 11:45:43;;;;;;;6.75;0.90;;;20.30;23.80;;;;;;5061577;28;20085;-60
2021/04/18 11:48:10;;;;;;;4.43;0.73;;;20.40;23.70;;;;;;5066026;28;20076;-58
2021/04/18 11:50:37;;;;;;;6.18;1.00;;;20.40;23.70;;;;;;5065019;28;20155;-59
2021/04/18 11:53:04;;;;;;;3.85;0.60;;;20.30;23.80;;;;;;5067184;28;20077;-61
2021/04/18 11:55:30;;;;;;;5.07;0.80;;;20.10;50.80;;;;;;5067928;28;20103;-58
2021/04/18 11:57:57;;;;;;;2.67;0.65;;;20.00;38.30;;;;;;5068772;28;20065;-58
2021/04/18 12:00:24;;;;;;;5.30;0.80;;;20.10;24.00;;;;;;5065244;28;20076;-58
2021/04/18 12:02:50;;;;;;;7.05;1.00;;;20.10;24.10;;;;;;5066258;28;20073;-60
2021/04/18 12:05:17;;;;;;;6.38;0.90;;;20.10;24.20;;;;;;5064906;28;20449;-57
2021/04/18 12:07:44;;;;;;;2.83;0.80;;;20.00;24.40;;;;;;5066440;28;20135;-56
2021/04/18 12:10:12;;;;;;;5.28;0.98;;;19.90;24.70;;;;;;5065393;28;20447;-60
2021/04/18 12:12:40;;;;;;;4.85;0.90;;;19.90;24.80;;;;;;5065481;28;20180;-61
2021/04/18 12:15:09;;;;;;;8.57;0.95;;;19.90;24.90;;;;;;5064229;28;20590;-58
2021/04/18 12:17:39;;;;;;;3.58;0.80;;;19.90;25.20;;;;;;5067060;28;20073;-57
2021/04/18 12:20:08;;;;;;;4.55;0.90;;;19.80;25.30;;;;;;5064679;28;20073;-57
2021/04/18 12:22:35;;;;;;;6.57;0.90;;;19.80;25.40;;;;;;5067846;28;20069;-57
2021/04/18 12:25:01;;;;;;;6.53;0.77;;;19.70;25.60;;;;;;5067403;28;20077;-61
2021/04/18 12:27:28;;;;;;;8.63;1.25;;;19.70;25.80;;;;;;5065927;28;20157;-56
2021/04/18 12:29:54;;;;;;;6.28;0.80;;;19.80;25.90;;;;;;5066732;28;20101;-57
2021/04/18 12:32:22;;;;;;;;;;;19.50;31.90;;;;;;5067680;28;20078;-56
2021/04/18 12:34:48;;;;;;;6.30;0.85;;;19.60;33.80;;;;;;5065171;28;20448;-55
2021/04/18 12:37:15;;;;;;;2.15;1.25;;;19.50;26.60;;;;;;5065735;28;20117;-57
2021/04/18 12:39:42;;;;;;;5.82;1.13;;;19.30;36.10;;;;;;5067418;28;20072;-60
2021/04/18 12:42:09;;;;;;;5.85;0.90;;;19.70;48.50;;;;;;5061385;28;20077;-60
2021/04/18 12:44:35;;;;;;;5.40;1.10;;;19.40;27.20;;;;;;5065206;28;20158;-60
2021/04/18 12:47:01;;;;;;;;;;;19.40;27.70;;;;;;5065138;28;20069;-60